createdAt,value
2018-11-11T00:00:43.666Z,55.45
2018-11-11T00:03:11.122Z,55.31
2018-11-11T00:05:38.452Z,54.70
2018-11-11T00:08:05.792Z,54.08
2018-11-11T00:10:33.199Z,54.24
2018-11-11T00:13:01.595Z,56.28
2018-11-11T00:15:28.906Z,55.46
2018-11-11T00:17:56.385Z,55.05
2018-11-11T00:20:23.814Z,55.02
2018-11-11T00:22:51.155Z,54.15
2018-11-11T00:25:18.507Z,54.23
2018-11-11T00:27:45.953Z,53.55
2018-11-11T00:30:15.454Z,53.92
2018-11-11T00:32:42.915Z,54.62
2018-11-11T00:35:10.614Z,55.11
2018-11-11T00:37:38.289Z,55.16
2018-11-11T00:40:05.888Z,57.18
2018-11-11T00:42:33.343Z,56.50
2018-11-11T00:45:00.857Z,56.93
2018-11-11T00:47:28.243Z,57.69
2018-11-11T00:49:55.649Z,57.65
2018-11-11T00:52:23.055Z,58.19
2018-11-11T00:54:50.461Z,57.73
2018-11-11T00:57:18.357Z,59.24
2018-11-11T00:59:45.857Z,59.00
2018-11-11T01:02:13.197Z,59.06
2018-11-11T01:04:40.808Z,59.19
2018-11-11T01:07:08.748Z,60.03
2018-11-11T01:09:36.117Z,59.56
2018-11-11T01:12:03.572Z,59.38
2018-11-11T01:14:30.961Z,60.74
2018-11-11T01:16:58.305Z,60.70
2018-11-11T01:19:25.662Z,60.27
2018-11-11T01:21:53.994Z,60.72
2018-11-11T01:24:21.359Z,60.98
2018-11-11T01:26:48.850Z,60.22
2018-11-11T01:29:16.408Z,61.39
2018-11-11T01:31:43.876Z,60.83
2018-11-11T01:34:11.176Z,60.33
2018-11-11T01:36:38.508Z,61.03
2018-11-11T01:39:06.909Z,60.51
2018-11-11T01:41:34.267Z,60.60
2018-11-11T01:44:01.658Z,60.68
2018-11-11T01:46:29.113Z,61.38
2018-11-11T01:48:56.664Z,61.34
2018-11-11T01:51:24.233Z,60.84
2018-11-11T01:53:51.664Z,59.58
2018-11-11T01:56:20.051Z,60.07
2018-11-11T01:58:47.421Z,59.30
2018-11-11T02:01:14.860Z,59.62
2018-11-11T02:03:42.243Z,59.47
2018-11-11T02:06:09.773Z,59.53
2018-11-11T02:08:37.237Z,58.49
2018-11-11T02:11:04.653Z,58.49
2018-11-11T02:13:32.122Z,58.74
2018-11-11T02:15:59.487Z,57.67
2018-11-11T02:18:26.889Z,59.39
2018-11-11T02:20:54.235Z,58.78
2018-11-11T02:23:21.815Z,59.30
2018-11-11T02:25:49.157Z,58.80
2018-11-11T02:28:16.557Z,58.23
2018-11-11T02:30:44.042Z,57.68
2018-11-11T02:33:11.464Z,57.26
2018-11-11T02:35:38.813Z,57.33
2018-11-11T02:38:06.150Z,58.14
2018-11-11T02:40:33.638Z,58.20
2018-11-11T02:43:01.032Z,58.41
2018-11-11T02:45:28.416Z,58.39
2018-11-11T02:47:55.838Z,59.35
2018-11-11T02:50:23.284Z,57.85
2018-11-11T02:52:50.666Z,58.34
2018-11-11T02:55:18.338Z,58.65
2018-11-11T02:57:46.837Z,59.06
2018-11-11T03:00:16.943Z,58.17
2018-11-11T03:02:44.912Z,58.39
2018-11-11T03:05:13.487Z,58.65
2018-11-11T03:07:40.883Z,58.75
2018-11-11T03:10:09.549Z,59.86
2018-11-11T03:12:37.348Z,59.57
2018-11-11T03:15:05.349Z,59.46
2018-11-11T03:17:32.704Z,59.08
2018-11-11T03:20:00.054Z,58.93
2018-11-11T03:22:27.511Z,58.53
2018-11-11T03:24:54.991Z,59.15
2018-11-11T03:27:22.337Z,58.13
2018-11-11T03:29:49.716Z,58.61
2018-11-11T03:32:17.113Z,59.49
2018-11-11T03:34:44.490Z,57.90
2018-11-11T03:37:11.984Z,58.85
2018-11-11T03:39:39.401Z,59.35
2018-11-11T03:42:06.817Z,57.69
2018-11-11T03:44:34.228Z,58.11
2018-11-11T03:47:01.725Z,58.24
2018-11-11T03:49:29.062Z,58.61
2018-11-11T03:51:56.450Z,57.67
2018-11-11T03:54:23.795Z,57.84
2018-11-11T03:56:51.252Z,57.21
2018-11-11T03:59:18.681Z,57.45
2018-11-11T04:01:46.044Z,56.87
2018-11-11T04:04:13.433Z,56.31
2018-11-11T04:06:40.785Z,56.86
2018-11-11T04:09:10.167Z,55.44
2018-11-11T04:11:37.856Z,55.11
2018-11-11T04:14:05.299Z,56.36
2018-11-11T04:16:32.757Z,55.15
2018-11-11T04:19:00.390Z,54.89
2018-11-11T04:21:28.522Z,54.54
2018-11-11T04:23:55.914Z,54.58
2018-11-11T04:26:23.378Z,55.10
2018-11-11T04:28:50.823Z,54.99
2018-11-11T04:31:18.244Z,54.48
2018-11-11T04:33:45.670Z,54.34
2018-11-11T04:36:12.998Z,54.46
2018-11-11T04:38:40.486Z,54.27
2018-11-11T04:41:07.788Z,54.52
2018-11-11T04:43:35.178Z,55.56
2018-11-11T04:46:02.675Z,56.10
2018-11-11T04:48:30.242Z,56.17
2018-11-11T04:50:57.578Z,55.78
2018-11-11T04:53:24.975Z,54.72
2018-11-11T04:55:52.426Z,54.17
2018-11-11T04:58:19.865Z,55.17
2018-11-11T05:00:47.284Z,55.88
2018-11-11T05:03:14.755Z,55.16
2018-11-11T05:05:42.216Z,55.12
2018-11-11T05:08:09.667Z,55.07
2018-11-11T05:10:37.226Z,55.18
2018-11-11T05:13:04.821Z,55.44
2018-11-11T05:15:32.273Z,55.10
2018-11-11T05:17:59.733Z,54.69
2018-11-11T05:20:27.191Z,55.24
2018-11-11T05:22:54.544Z,55.11
2018-11-11T05:25:22.060Z,55.62
2018-11-11T05:27:49.406Z,55.10
2018-11-11T05:30:16.902Z,55.00
2018-11-11T05:32:44.274Z,55.40
2018-11-11T05:35:12.227Z,54.47
2018-11-11T05:37:40.413Z,55.67
2018-11-11T05:40:08.790Z,55.28
2018-11-11T05:42:36.144Z,55.30
2018-11-11T05:45:04.582Z,55.08
2018-11-11T05:47:32.437Z,54.89
2018-11-11T05:49:59.780Z,55.40
2018-11-11T05:52:27.329Z,54.97
2018-11-11T05:54:54.760Z,54.34
2018-11-11T05:57:22.179Z,54.91
2018-11-11T05:59:49.502Z,55.25
2018-11-11T06:02:16.996Z,54.75
2018-11-11T06:04:44.357Z,54.82
2018-11-11T06:07:11.815Z,54.56
2018-11-11T06:09:39.320Z,54.44
2018-11-11T06:12:06.766Z,54.98
2018-11-11T06:14:34.256Z,54.99
2018-11-11T06:17:01.639Z,56.13
2018-11-11T06:19:29.088Z,56.44
2018-11-11T06:21:57.457Z,55.74
2018-11-11T06:24:24.821Z,54.82
2018-11-11T06:26:52.325Z,55.89
2018-11-11T06:29:19.769Z,54.98
2018-11-11T06:31:48.070Z,56.33
2018-11-11T06:34:16.196Z,55.47
2018-11-11T06:36:43.608Z,55.55
2018-11-11T06:39:12.064Z,55.96
2018-11-11T06:41:39.985Z,56.54
2018-11-11T06:44:07.815Z,55.55
2018-11-11T06:46:35.417Z,55.65
2018-11-11T06:49:03.323Z,56.88
2018-11-11T06:51:30.666Z,55.85
2018-11-11T06:53:58.107Z,55.36
2018-11-11T06:56:25.747Z,55.04
2018-11-11T06:58:53.202Z,56.18
2018-11-11T07:01:20.532Z,56.09
2018-11-11T07:03:54.405Z,55.83
2018-11-11T07:06:22.338Z,55.41
2018-11-11T07:08:50.150Z,55.21
2018-11-11T07:11:18.305Z,55.70
2018-11-11T07:13:45.650Z,55.24
2018-11-11T07:16:13.350Z,55.05
2018-11-11T07:18:41.286Z,54.77
2018-11-11T07:21:09.740Z,54.46
2018-11-11T07:23:39.382Z,55.05
2018-11-11T07:26:06.704Z,55.37
2018-11-11T07:28:34.558Z,54.87
2018-11-11T07:31:01.934Z,54.19
2018-11-11T07:33:29.665Z,55.08
2018-11-11T07:35:57.595Z,54.95
2018-11-11T07:38:24.937Z,54.48
2018-11-11T07:40:52.583Z,53.73
2018-11-11T07:43:20.002Z,54.48
2018-11-11T07:45:48.036Z,55.02
2018-11-11T07:48:15.684Z,55.15
2018-11-11T07:50:43.342Z,54.39
2018-11-11T07:53:10.678Z,55.27
2018-11-11T07:55:38.221Z,54.49
2018-11-11T07:58:05.888Z,55.51
2018-11-11T08:00:33.378Z,54.96
2018-11-11T08:03:00.821Z,54.65
2018-11-11T08:05:28.173Z,54.85
2018-11-11T08:07:55.640Z,54.39
2018-11-11T08:10:34.459Z,55.64
2018-11-11T08:13:01.943Z,54.90
2018-11-11T08:15:29.455Z,54.60
2018-11-11T08:17:57.410Z,55.85
2018-11-11T08:20:25.008Z,56.52
2018-11-11T08:22:52.523Z,56.16
2018-11-11T08:25:20.412Z,57.14
2018-11-11T08:27:47.831Z,56.75
2018-11-11T08:30:15.253Z,56.84
2018-11-11T08:32:42.665Z,57.33
2018-11-11T08:35:10.978Z,57.88
2018-11-11T08:37:39.178Z,57.95
2018-11-11T08:40:07.331Z,57.66
2018-11-11T08:42:34.919Z,59.20
2018-11-11T08:45:02.546Z,59.21
2018-11-11T08:47:31.219Z,60.47
2018-11-11T08:49:58.628Z,59.40
2018-11-11T08:52:25.996Z,60.06
2018-11-11T08:54:53.588Z,62.05
2018-11-11T08:57:21.228Z,61.53
2018-11-11T08:59:48.820Z,61.72
2018-11-11T09:02:16.344Z,60.48
2018-11-11T09:04:43.818Z,62.21
2018-11-11T09:07:11.226Z,62.86
2018-11-11T09:09:38.686Z,62.69
2018-11-11T09:12:06.175Z,62.71
2018-11-11T09:14:33.619Z,61.74
2018-11-11T09:17:01.131Z,62.63
2018-11-11T09:19:28.874Z,62.84
2018-11-11T09:21:56.326Z,63.41
2018-11-11T09:24:23.842Z,61.78
2018-11-11T09:26:51.203Z,62.20
2018-11-11T09:29:18.610Z,61.57
2018-11-11T09:31:46.038Z,61.71
2018-11-11T09:34:13.718Z,61.71
2018-11-11T09:36:41.038Z,61.58
2018-11-11T09:39:10.182Z,61.69
2018-11-11T09:41:37.763Z,60.81
2018-11-11T09:44:06.041Z,61.44
2018-11-11T09:46:34.353Z,60.42
2018-11-11T09:49:01.803Z,60.10
2018-11-11T09:51:29.207Z,60.65
2018-11-11T09:53:56.603Z,60.83
2018-11-11T09:56:24.563Z,60.52
2018-11-11T09:58:51.951Z,60.51
2018-11-11T10:01:19.461Z,59.83
2018-11-11T10:03:53.236Z,60.26
2018-11-11T10:07:26.398Z,59.10
2018-11-11T10:09:59.558Z,57.96
2018-11-11T10:12:34.993Z,59.11
2018-11-11T10:15:08.100Z,58.20
2018-11-11T10:17:40.068Z,56.54
2018-11-11T10:20:19.742Z,57.54
2018-11-11T10:22:55.595Z,57.34
2018-11-11T10:27:31.592Z,57.34
2018-11-11T10:30:09.976Z,57.52
2018-11-11T10:33:09.239Z,57.72
2018-11-11T10:36:17.108Z,55.90
2018-11-11T10:38:52.000Z,55.73
2018-11-11T10:41:29.856Z,56.89
2018-11-11T10:44:00.538Z,55.59
2018-11-11T10:46:40.172Z,55.29
2018-11-11T10:49:09.049Z,55.03
2018-11-11T10:51:36.736Z,54.51
2018-11-11T10:54:04.602Z,55.12
2018-11-11T10:56:32.048Z,54.93
2018-11-11T10:58:59.421Z,54.62
2018-11-11T11:01:35.845Z,54.23
2018-11-11T11:04:03.774Z,55.36
2018-11-11T11:06:37.214Z,54.04
2018-11-11T11:09:09.791Z,54.12
2018-11-11T11:11:38.005Z,54.36
2018-11-11T11:14:05.357Z,53.86
2018-11-11T11:16:32.680Z,53.78
2018-11-11T11:19:00.140Z,55.29
2018-11-11T11:21:27.501Z,53.83
2018-11-11T11:23:54.880Z,54.77
2018-11-11T11:26:22.266Z,54.29
2018-11-11T11:28:49.670Z,53.01
2018-11-11T11:31:17.105Z,53.44
2018-11-11T11:33:44.431Z,52.82
2018-11-11T11:36:11.933Z,51.58
2018-11-11T11:38:39.285Z,51.99
2018-11-11T11:41:07.686Z,50.05
2018-11-11T11:43:35.571Z,50.35
2018-11-11T11:46:03.052Z,50.52
2018-11-11T11:48:30.458Z,49.42
2018-11-11T11:50:57.830Z,50.54
2018-11-11T11:53:26.103Z,50.03
2018-11-11T11:55:53.637Z,50.49
2018-11-11T11:58:23.841Z,50.27
2018-11-11T12:00:51.258Z,49.04
2018-11-11T12:03:18.684Z,48.82
2018-11-11T12:05:46.908Z,49.44
2018-11-11T12:08:14.565Z,48.23
2018-11-11T12:10:42.528Z,48.04
2018-11-11T12:13:11.033Z,47.85
2018-11-11T12:15:43.845Z,47.97
2018-11-11T12:18:11.332Z,47.26
2018-11-11T12:20:39.300Z,47.04
2018-11-11T12:23:07.107Z,47.93
2018-11-11T12:25:35.222Z,48.09
2018-11-11T12:28:02.918Z,47.76
2018-11-11T12:30:30.399Z,47.45
2018-11-11T12:32:57.752Z,47.77
2018-11-11T12:35:25.279Z,47.39
2018-11-11T12:37:52.869Z,47.12
2018-11-11T12:40:20.335Z,46.91
2018-11-11T12:42:47.765Z,47.88
2018-11-11T12:45:15.287Z,46.76
2018-11-11T12:47:42.778Z,47.09
2018-11-11T12:50:11.339Z,48.32
2018-11-11T12:52:39.179Z,47.66
2018-11-11T12:55:07.500Z,47.62
2018-11-11T12:57:34.917Z,47.12
2018-11-11T13:00:02.476Z,46.51
2018-11-11T13:02:30.006Z,48.40
2018-11-11T13:04:57.630Z,47.80
2018-11-11T13:07:25.695Z,47.63
2018-11-11T13:09:53.044Z,47.43
2018-11-11T13:12:23.265Z,47.88
2018-11-11T13:14:51.420Z,47.70
2018-11-11T13:17:18.862Z,46.62
2018-11-11T13:19:47.743Z,46.82
2018-11-11T13:22:15.335Z,48.10
2018-11-11T13:24:42.654Z,47.46
2018-11-11T13:27:10.144Z,47.96
2018-11-11T13:29:37.798Z,47.99
2018-11-11T13:32:05.503Z,47.69
2018-11-11T13:34:32.856Z,47.62
2018-11-11T13:37:00.304Z,48.32
2018-11-11T13:39:29.020Z,47.89
2018-11-11T13:41:56.444Z,47.16
2018-11-11T13:44:23.918Z,47.85
2018-11-11T13:46:52.055Z,47.35
2018-11-11T13:49:19.348Z,47.03
2018-11-11T13:51:46.915Z,47.01
2018-11-11T13:54:15.219Z,47.14
2018-11-11T13:56:42.663Z,46.69
2018-11-11T13:59:10.167Z,47.38
2018-11-11T14:01:38.348Z,47.38
2018-11-11T14:04:05.821Z,47.30
2018-11-11T14:06:33.231Z,48.82
2018-11-11T14:09:00.590Z,47.23
2018-11-11T14:11:28.059Z,47.63
2018-11-11T14:13:55.477Z,48.01
2018-11-11T14:16:22.964Z,46.79
2018-11-11T14:18:50.534Z,48.23
2018-11-11T14:21:17.915Z,47.18
2018-11-11T14:23:46.235Z,48.17
2018-11-11T14:26:13.829Z,47.63
2018-11-11T14:28:41.280Z,48.32
2018-11-11T14:31:08.666Z,48.01
2018-11-11T14:33:36.079Z,48.34
2018-11-11T14:36:03.502Z,48.24
2018-11-11T14:38:31.057Z,47.97
2018-11-11T14:40:58.473Z,48.92
2018-11-11T14:43:26.120Z,49.07
2018-11-11T14:45:53.921Z,48.44
2018-11-11T14:48:21.360Z,48.72
2018-11-11T14:50:48.848Z,49.59
2018-11-11T14:53:16.502Z,49.56
2018-11-11T14:55:44.033Z,49.37
2018-11-11T14:58:11.457Z,49.41
2018-11-11T15:00:38.955Z,49.56
2018-11-11T15:03:12.520Z,49.10
2018-11-11T15:05:40.584Z,48.77
2018-11-11T15:08:08.356Z,49.43
2018-11-11T15:10:35.845Z,49.25
2018-11-11T15:13:04.244Z,48.83
2018-11-11T15:15:31.636Z,50.02
2018-11-11T15:18:00.163Z,49.92
2018-11-11T15:20:27.649Z,48.98
2018-11-11T15:22:54.984Z,48.31
2018-11-11T15:25:23.759Z,49.57
2018-11-11T15:27:51.408Z,49.76
2018-11-11T15:30:23.244Z,48.79
2018-11-11T15:32:51.181Z,49.88
2018-11-11T15:35:18.572Z,49.71
2018-11-11T15:37:45.970Z,49.95
2018-11-11T15:40:17.430Z,49.23
2018-11-11T15:42:44.848Z,49.78
2018-11-11T15:45:18.230Z,49.88
2018-11-11T15:47:45.692Z,50.58
2018-11-11T15:50:16.835Z,49.38
2018-11-11T15:52:45.975Z,51.18
2018-11-11T15:55:14.089Z,49.97
2018-11-11T15:57:41.580Z,50.87
2018-11-11T16:00:17.066Z,51.10
2018-11-11T16:02:44.945Z,50.92
2018-11-11T16:05:12.960Z,49.51
2018-11-11T16:07:41.190Z,50.11
2018-11-11T16:10:10.773Z,50.38
2018-11-11T16:12:38.199Z,50.96
2018-11-11T16:15:08.630Z,51.16
2018-11-11T16:17:35.990Z,50.06
2018-11-11T16:20:03.771Z,50.49
2018-11-11T16:22:31.184Z,49.39
2018-11-11T16:24:58.780Z,50.55
2018-11-11T16:27:26.224Z,49.39
2018-11-11T16:29:53.647Z,51.00
2018-11-11T16:32:23.715Z,50.61
2018-11-11T16:34:51.194Z,49.92
2018-11-11T16:37:18.596Z,49.30
2018-11-11T16:39:46.016Z,49.57
2018-11-11T16:42:13.452Z,49.81
2018-11-11T16:44:40.889Z,49.33
2018-11-11T16:47:08.912Z,50.38
2018-11-11T16:49:36.350Z,49.73
2018-11-11T16:52:03.799Z,49.48
2018-11-11T16:54:31.327Z,50.29
2018-11-11T16:56:58.880Z,50.72
2018-11-11T16:59:26.918Z,51.99
2018-11-11T17:01:54.349Z,51.26
2018-11-11T17:04:22.892Z,49.82
2018-11-11T17:06:50.306Z,50.51
2018-11-11T17:09:17.954Z,50.52
2018-11-11T17:11:45.383Z,51.07
2018-11-11T17:14:12.823Z,51.35
2018-11-11T17:16:40.215Z,50.42
2018-11-11T17:19:07.712Z,50.19
2018-11-11T17:21:35.322Z,50.52
2018-11-11T17:24:03.305Z,50.00
2018-11-11T17:26:30.897Z,49.50
2018-11-11T17:28:58.495Z,49.77
2018-11-11T17:31:25.861Z,50.50
2018-11-11T17:33:53.337Z,49.54
2018-11-11T17:36:20.737Z,50.07
2018-11-11T17:38:48.147Z,50.31
2018-11-11T17:41:15.651Z,50.31
2018-11-11T17:43:43.161Z,51.24
2018-11-11T17:46:10.649Z,49.93
2018-11-11T17:48:38.427Z,49.86
2018-11-11T17:51:05.972Z,51.07
2018-11-11T17:53:33.478Z,51.94
2018-11-11T17:56:01.105Z,50.63
2018-11-11T17:58:28.476Z,49.87
2018-11-11T18:00:55.896Z,50.37
2018-11-11T18:03:23.324Z,50.24
2018-11-11T18:05:50.674Z,51.65
2018-11-11T18:08:18.108Z,51.52
2018-11-11T18:10:46.121Z,50.79
2018-11-11T18:13:13.552Z,51.30
2018-11-11T18:15:44.411Z,51.21
2018-11-11T18:18:12.053Z,49.98
2018-11-11T18:20:39.593Z,51.01
2018-11-11T18:23:07.539Z,50.50
2018-11-11T18:25:35.559Z,51.83
2018-11-11T18:28:03.092Z,51.08
2018-11-11T18:30:31.977Z,51.27
2018-11-11T18:32:59.426Z,51.44
2018-11-11T18:35:27.104Z,52.36
2018-11-11T18:37:54.653Z,51.78
2018-11-11T18:40:23.599Z,51.94
2018-11-11T18:42:50.957Z,52.01
2018-11-11T18:45:20.645Z,51.42
2018-11-11T18:47:48.885Z,51.84
2018-11-11T18:50:20.495Z,52.55
2018-11-11T18:52:48.204Z,52.40
2018-11-11T18:55:15.786Z,51.62
2018-11-11T18:57:43.724Z,51.25
2018-11-11T19:00:13.752Z,51.46
2018-11-11T19:02:41.768Z,51.80
2018-11-11T19:05:10.743Z,51.42
2018-11-11T19:07:38.833Z,52.17
2018-11-11T19:10:09.179Z,52.14
2018-11-11T19:12:36.564Z,52.83
2018-11-11T19:15:04.769Z,52.34
2018-11-11T19:17:32.339Z,52.38
2018-11-11T19:19:59.719Z,52.13
2018-11-11T19:22:27.176Z,51.54
2018-11-11T19:24:54.626Z,53.56
2018-11-11T19:27:21.910Z,51.60
2018-11-11T19:29:49.381Z,51.19
2018-11-11T19:32:16.839Z,51.97
2018-11-11T19:34:44.257Z,51.77
2018-11-11T19:37:11.766Z,51.42
2018-11-11T19:39:39.232Z,52.65
2018-11-11T19:42:06.710Z,51.50
2018-11-11T19:44:34.108Z,51.59
2018-11-11T19:47:01.535Z,51.09
2018-11-11T19:49:30.040Z,52.11
2018-11-11T19:51:57.760Z,51.63
2018-11-11T19:54:25.277Z,50.80
2018-11-11T19:56:52.858Z,51.19
2018-11-11T19:59:20.769Z,51.81
2018-11-11T20:01:48.931Z,51.01
2018-11-11T20:04:16.339Z,51.62
2018-11-11T20:06:43.769Z,51.20
2018-11-11T20:09:13.002Z,51.86
2018-11-11T20:11:40.544Z,50.98
2018-11-11T20:14:08.362Z,50.87
2018-11-11T20:16:36.417Z,51.00
2018-11-11T20:19:04.148Z,51.07
2018-11-11T20:21:32.219Z,51.74
2018-11-11T20:24:00.624Z,51.09
2018-11-11T20:26:28.174Z,50.63
2018-11-11T20:28:55.629Z,51.08
2018-11-11T20:31:23.318Z,50.55
2018-11-11T20:33:50.722Z,50.76
2018-11-11T20:36:18.731Z,51.99
2018-11-11T20:38:46.402Z,51.53
2018-11-11T20:41:13.884Z,51.39
2018-11-11T20:43:41.535Z,51.30
2018-11-11T20:46:08.951Z,51.86
2018-11-11T20:48:36.311Z,51.46
2018-11-11T20:51:04.003Z,52.33
2018-11-11T20:53:31.476Z,51.84
2018-11-11T20:55:59.162Z,52.15
2018-11-11T20:58:26.761Z,52.74
2018-11-11T21:00:54.262Z,52.29
2018-11-11T21:03:21.933Z,53.30
2018-11-11T21:05:49.421Z,54.05
2018-11-11T21:08:16.879Z,54.86
2018-11-11T21:10:45.349Z,55.76
2018-11-11T21:13:12.705Z,57.32
2018-11-11T21:15:41.049Z,56.26
2018-11-11T21:18:09.149Z,57.04
2018-11-11T21:20:36.604Z,56.58
2018-11-11T21:23:04.191Z,57.63
2018-11-11T21:25:31.879Z,58.19
2018-11-11T21:27:59.323Z,59.54
2018-11-11T21:30:28.964Z,59.35
2018-11-11T21:32:56.660Z,58.77
2018-11-11T21:35:24.018Z,59.81
2018-11-11T21:37:51.668Z,60.38
2018-11-11T21:40:21.177Z,59.94
2018-11-11T21:42:49.163Z,60.23
2018-11-11T21:45:17.779Z,60.13
2018-11-11T21:47:45.499Z,60.13
2018-11-11T21:50:14.390Z,59.90
2018-11-11T21:52:43.328Z,61.26
2018-11-11T21:55:10.779Z,60.92
2018-11-11T21:57:38.351Z,61.25
2018-11-11T22:00:08.593Z,61.24
2018-11-11T22:02:36.098Z,62.00
2018-11-11T22:05:03.814Z,61.79
2018-11-11T22:07:31.218Z,60.55
2018-11-11T22:09:58.781Z,60.98
2018-11-11T22:12:26.079Z,60.56
2018-11-11T22:14:53.476Z,60.63
2018-11-11T22:17:20.904Z,61.02
2018-11-11T22:19:48.257Z,62.13
2018-11-11T22:22:15.675Z,61.69
2018-11-11T22:24:43.100Z,62.10
2018-11-11T22:27:10.554Z,61.83
2018-11-11T22:29:38.033Z,61.73
2018-11-11T22:32:10.241Z,61.42
2018-11-11T22:34:37.924Z,61.88
2018-11-11T22:37:06.453Z,61.85
2018-11-11T22:39:33.900Z,62.39
2018-11-11T22:42:01.233Z,61.74
2018-11-11T22:44:28.621Z,62.84
2018-11-11T22:46:55.943Z,63.08
2018-11-11T22:49:23.305Z,62.30
2018-11-11T22:51:50.631Z,62.70
2018-11-11T22:54:18.093Z,62.87
2018-11-11T22:56:45.561Z,62.98
2018-11-11T22:59:12.899Z,62.63
2018-11-11T23:01:40.291Z,61.38
2018-11-11T23:04:07.691Z,62.59
2018-11-11T23:06:35.297Z,61.63
2018-11-11T23:09:03.237Z,63.17
2018-11-11T23:11:30.637Z,62.43
2018-11-11T23:13:57.999Z,64.15
2018-11-11T23:16:25.561Z,62.89
2018-11-11T23:18:52.902Z,61.79
2018-11-11T23:21:20.289Z,61.83
2018-11-11T23:23:47.873Z,62.11
2018-11-11T23:26:15.266Z,62.29
2018-11-11T23:28:42.726Z,61.10
2018-11-11T23:31:10.132Z,62.28
2018-11-11T23:33:37.554Z,60.82
2018-11-11T23:36:05.390Z,61.41
2018-11-11T23:38:32.899Z,60.50
2018-11-11T23:41:00.371Z,62.14
2018-11-11T23:43:27.708Z,61.47
2018-11-11T23:45:55.199Z,61.66
2018-11-11T23:48:22.623Z,61.21
2018-11-11T23:50:49.991Z,60.80
2018-11-11T23:53:17.952Z,60.64
2018-11-11T23:55:45.289Z,61.53
2018-11-11T23:58:12.678Z,60.38
